Agua Dulce, Texas
Current Conditions -  °F | °C
As of 3:53 AM on Saturday 25 Oct 2014 (Local Time) from KALI Reporting Station
Clear Clear  
Wind Chill: 64°   Ceiling: Unl
Heat Index: 64°   Visibility: 10mi
Dew Point: 59°   Wind: 5mph
Humidity: 84%   Direction: 250°WSW
Pressure: 30.12"   Gusts: NA
Location:  27.78°N, 97.91°W
Report Text: KALI 250853Z AUTO 25004KT 10SM CLR 18/15 A3012 RMK AO2 SLP197 T01780150 58004
Loading
Personal Weather Stations






























Interactive Weather Map
Tropical Storm Tracking
New forecast layout! Learn more

10-Day Weather Forecast

Advertisements
Track Severe Weather on mobile